Time;durP1;ratioP1;P1;durP2;ratioP2;P2;SDS_P1;SDS_P2;PMS_P1;PMS_P2;Temp;Humidity;BMP_temperature;BMP_pressure;BME280_temperature;BME280_humidity;BME280_pressure;Samples;Min_cycle;Max_cycle;Signal;HPM_P1;HPM_P2
2022/06/28 00:01:38;;;;;;;1.40;1.30;;;;;;;;;;5041823;28;20199;-88
2022/06/28 00:04:07;;;;;;;1.48;1.30;;;;;;;;;;5035871;28;20247;-87
2022/06/28 00:06:34;;;;;;;1.30;1.20;;;;;;;;;;5035021;28;20254;-88
2022/06/28 00:09:01;;;;;;;1.88;1.15;;;;;;;;;;5034356;28;20698;-87
2022/06/28 00:11:28;;;;;;;1.52;1.30;;;;;;;;;;5034696;28;20213;-88
2022/06/28 00:13:55;;;;;;;1.75;1.45;;;;;;;;;;5033429;28;20238;-87
2022/06/28 00:16:22;;;;;;;1.58;1.38;;;;;;;;;;5034260;28;20663;-88
2022/06/28 00:18:51;;;;;;;1.67;1.58;;;;;;;;;;5033729;28;20230;-88
2022/06/28 00:21:19;;;;;;;1.65;1.30;;;;;;;;;;5034263;28;20206;-88
2022/06/28 00:23:48;;;;;;;1.60;1.50;;;;;;;;;;5033124;28;20697;-87
2022/06/28 00:26:15;;;;;;;1.97;1.30;;;;;;;;;;5033940;28;20238;-88
2022/06/28 00:28:42;;;;;;;2.10;1.90;;;;;;;;;;5033231;28;20209;-88
2022/06/28 00:31:09;;;;;;;1.85;1.48;;;;;;;;;;5034052;28;20222;-88
2022/06/28 00:33:37;;;;;;;1.77;1.63;;;;;;;;;;5032876;28;20246;-88
2022/06/28 00:36:04;;;;;;;2.00;1.50;;;;;;;;;;5033605;28;20206;-88
2022/06/28 00:38:33;;;;;;;2.17;1.47;;;;;;;;;;5033495;28;20191;-87
2022/06/28 00:41:00;;;;;;;1.60;1.50;;;;;;;;;;5033674;28;20203;-87
2022/06/28 00:43:27;;;;;;;1.50;1.40;;;;;;;;;;5041713;28;20226;-87
2022/06/28 00:45:54;;;;;;;1.70;1.43;;;;;;;;;;5045655;28;20218;-86
2022/06/28 00:48:23;;;;;;;1.27;1.17;;;;;;;;;;5044702;28;20207;-87
2022/06/28 00:50:50;;;;;;;4.97;1.80;;;;;;;;;;5043934;28;20241;-88
2022/06/28 00:53:18;;;;;;;1.60;1.50;;;;;;;;;;5043306;28;20230;-87
2022/06/28 00:55:46;;;;;;;2.07;1.40;;;;;;;;;;5042504;28;20241;-87
2022/06/28 00:58:13;;;;;;;3.17;1.50;;;;;;;;;;5043403;28;20202;-87
2022/06/28 01:00:41;;;;;;;2.23;1.23;;;;;;;;;;5033494;28;20242;-87
2022/06/28 01:03:09;;;;;;;1.63;1.53;;;;;;;;;;5033911;28;20239;-87
2022/06/28 01:05:37;;;;;;;2.90;1.80;;;;;;;;;;5029286;28;20226;-87
2022/06/28 01:08:05;;;;;;;2.33;1.87;;;;;;;;;;5033186;28;20238;-87
2022/06/28 01:10:32;;;;;;;1.60;1.50;;;;;;;;;;5033157;28;20234;-88
2022/06/28 01:13:01;;;;;;;2.87;2.00;;;;;;;;;;5033402;28;20587;-87
2022/06/28 01:15:28;;;;;;;1.70;1.60;;;;;;;;;;5032462;28;20245;-88
2022/06/28 01:17:55;;;;;;;4.17;2.00;;;;;;;;;;5033545;28;20210;-87
2022/06/28 01:20:22;;;;;;;6.53;1.70;;;;;;;;;;5032417;28;20241;-87
2022/06/28 01:22:51;;;;;;;1.60;1.50;;;;;;;;;;5032960;28;20592;-88
2022/06/28 01:25:18;;;;;;;1.80;1.70;;;;;;;;;;5032942;28;20265;-87
2022/06/28 01:27:45;;;;;;;1.80;1.70;;;;;;;;;;5046557;28;20230;-87
2022/06/28 01:30:13;;;;;;;3.07;1.87;;;;;;;;;;5054346;28;20234;-87
2022/06/28 01:32:40;;;;;;;3.97;1.80;;;;;;;;;;5054959;28;20199;-85
2022/06/28 01:35:08;;;;;;;4.33;2.00;;;;;;;;;;5053857;28;20325;-86
2022/06/28 01:37:35;;;;;;;2.93;1.80;;;;;;;;;;5054820;28;20201;-86
2022/06/28 01:40:04;;;;;;;2.30;2.10;;;;;;;;;;5054413;28;20257;-86
2022/06/28 01:42:31;;;;;;;2.10;1.90;;;;;;;;;;5054125;28;20217;-86
2022/06/28 01:44:59;;;;;;;2.30;2.03;;;;;;;;;;5054761;28;20234;-86
2022/06/28 01:47:27;;;;;;;1.97;1.87;;;;;;;;;;5054551;28;20223;-86
2022/06/28 01:49:55;;;;;;;3.13;2.23;;;;;;;;;;5043744;28;20238;-87
2022/06/28 01:52:22;;;;;;;2.03;1.93;;;;;;;;;;5033526;28;20207;-88
2022/06/28 01:54:49;;;;;;;2.70;2.10;;;;;;;;;;5032383;28;20235;-87
2022/06/28 01:57:18;;;;;;;2.93;2.10;;;;;;;;;;5033003;28;20221;-86
2022/06/28 01:59:45;;;;;;;2.10;1.90;;;;;;;;;;5032269;28;20231;-87
2022/06/28 02:02:12;;;;;;;2.30;1.93;;;;;;;;;;5032787;28;20215;-88
2022/06/28 02:04:39;;;;;;;2.30;2.10;;;;;;;;;;5034627;28;20238;-87
2022/06/28 02:07:06;;;;;;;1.97;1.87;;;;;;;;;;5036435;28;20222;-88
2022/06/28 02:09:33;;;;;;;2.60;1.90;;;;;;;;;;5035900;28;20234;-88
2022/06/28 02:12:00;;;;;;;2.10;2.00;;;;;;;;;;5036392;28;20590;-88
2022/06/28 02:14:28;;;;;;;2.13;1.90;;;;;;;;;;5035823;28;20261;-87
2022/06/28 02:16:56;;;;;;;2.07;1.97;;;;;;;;;;5036401;28;20210;-88
2022/06/28 02:19:25;;;;;;;2.43;2.23;;;;;;;;;;5035735;28;20260;-87
2022/06/28 02:21:52;;;;;;;1.97;1.87;;;;;;;;;;5036282;28;20206;-87
2022/06/28 02:24:19;;;;;;;4.03;2.10;;;;;;;;;;5035439;28;20605;-87
2022/06/28 02:26:47;;;;;;;3.07;2.30;;;;;;;;;;5036736;28;20227;-88
2022/06/28 02:29:14;;;;;;;2.20;2.07;;;;;;;;;;5035717;28;20593;-88
2022/06/28 02:31:42;;;;;;;2.30;2.13;;;;;;;;;;5036268;28;20219;-88
2022/06/28 02:40:21;;;;;;;2.07;1.97;;;;;;;;;;5035186;28;20265;-88
2022/06/28 02:42:26;;;;;;;3.37;2.23;;;;;;;;;;5035614;28;20559;-88
2022/06/28 02:44:53;;;;;;;2.40;2.17;;;;;;;;;;5035392;28;20475;-88
2022/06/28 02:47:22;;;;;;;5.10;2.17;;;;;;;;;;5035847;28;20620;-88
2022/06/28 02:49:49;;;;;;;3.07;2.10;;;;;;;;;;5035108;28;20608;-88
2022/06/28 02:52:16;;;;;;;2.40;2.20;;;;;;;;;;5036120;28;20186;-87
2022/06/28 02:54:43;;;;;;;2.27;2.07;;;;;;;;;;5035014;28;20242;-88
2022/06/28 02:57:10;;;;;;;3.13;2.00;;;;;;;;;;5035734;28;20240;-88
2022/06/28 02:59:37;;;;;;;2.07;1.90;;;;;;;;;;5034910;28;20238;-88
2022/06/28 03:02:05;;;;;;;2.10;1.80;;;;;;;;;;5035503;28;20207;-88
2022/06/28 03:04:33;;;;;;;3.30;2.03;;;;;;;;;;5034461;28;20340;-85
2022/06/28 03:07:00;;;;;;;2.50;2.30;;;;;;;;;;5034564;28;20226;-85
2022/06/28 03:09:27;;;;;;;2.20;2.10;;;;;;;;;;5034238;28;20238;-85
2022/06/28 03:11:54;;;;;;;2.40;2.20;;;;;;;;;;5034909;28;20306;-85
2022/06/28 03:14:21;;;;;;;2.10;2.00;;;;;;;;;;5033480;28;20305;-85
2022/06/28 03:16:49;;;;;;;2.27;2.00;;;;;;;;;;5034287;28;20213;-84
2022/06/28 03:19:16;;;;;;;3.60;2.10;;;;;;;;;;5033851;28;20241;-85
2022/06/28 03:21:44;;;;;;;2.13;1.87;;;;;;;;;;5034530;28;20210;-85
2022/06/28 03:24:11;;;;;;;2.60;2.40;;;;;;;;;;5033753;28;20238;-85
2022/06/28 03:26:39;;;;;;;4.80;2.17;;;;;;;;;;5034016;28;20831;-84
2022/06/28 03:29:06;;;;;;;2.20;2.10;;;;;;;;;;5033765;28;20258;-85
2022/06/28 03:31:33;;;;;;;2.53;2.20;;;;;;;;;;5034426;28;20328;-85
2022/06/28 03:34:00;;;;;;;4.87;2.13;;;;;;;;;;5033428;28;20245;-84
2022/06/28 03:36:27;;;;;;;2.13;1.93;;;;;;;;;;5034500;28;20207;-84
2022/06/28 03:38:56;;;;;;;2.10;1.90;;;;;;;;;;5033819;28;20230;-85
2022/06/28 03:41:23;;;;;;;2.23;2.03;;;;;;;;;;5034056;28;20696;-86
2022/06/28 03:43:50;;;;;;;3.13;2.10;;;;;;;;;;5033379;28;20238;-85
2022/06/28 03:46:17;;;;;;;3.20;2.00;;;;;;;;;;5033956;28;20210;-85
2022/06/28 03:48:45;;;;;;;2.43;2.07;;;;;;;;;;5033528;28;20260;-85
2022/06/28 03:51:12;;;;;;;2.23;2.13;;;;;;;;;;5034009;28;20241;-86
2022/06/28 03:53:39;;;;;;;2.97;2.70;;;;;;;;;;5033548;28;20227;-84
2022/06/28 03:56:07;;;;;;;3.33;2.00;;;;;;;;;;5034099;28;20207;-85
2022/06/28 03:58:35;;;;;;;2.37;2.17;;;;;;;;;;5033143;28;20210;-85
2022/06/28 04:01:02;;;;;;;2.13;1.90;;;;;;;;;;5033574;28;20210;-85
2022/06/28 04:03:29;;;;;;;2.37;2.23;;;;;;;;;;5032756;28;20238;-85
2022/06/28 04:05:56;;;;;;;2.50;2.30;;;;;;;;;;5033943;28;20211;-85
2022/06/28 04:08:23;;;;;;;2.63;2.10;;;;;;;;;;5033272;28;20230;-85
2022/06/28 04:11:13;;;;;;;2.47;2.27;;;;;;;;;;5033680;28;20203;-85
2022/06/28 04:13:39;;;;;;;3.83;2.40;;;;;;;;;;5032648;28;20331;-85
2022/06/28 04:16:06;;;;;;;2.33;2.13;;;;;;;;;;5033877;28;20207;-85
2022/06/28 04:18:34;;;;;;;2.07;1.97;;;;;;;;;;5033077;28;20583;-85
2022/06/28 04:21:01;;;;;;;3.50;2.23;;;;;;;;;;5033265;28;20203;-85
2022/06/28 04:23:29;;;;;;;2.70;2.50;;;;;;;;;;5032809;28;20234;-85
2022/06/28 04:25:56;;;;;;;3.47;2.67;;;;;;;;;;5033277;28;20206;-84
2022/06/28 04:28:23;;;;;;;5.43;2.50;;;;;;;;;;5032853;28;20237;-85
2022/06/28 04:30:52;;;;;;;3.93;2.97;;;;;;;;;;5033375;28;20702;-85
2022/06/28 04:33:19;;;;;;;2.70;2.50;;;;;;;;;;5033206;28;20223;-85
2022/06/28 04:35:46;;;;;;;7.63;2.63;;;;;;;;;;5033310;28;20607;-84
2022/06/28 04:38:13;;;;;;;5.83;2.60;;;;;;;;;;5033189;28;20588;-85
2022/06/28 04:40:40;;;;;;;4.70;2.63;;;;;;;;;;5032848;28;20977;-84
2022/06/28 04:43:07;;;;;;;5.20;2.67;;;;;;;;;;5033294;28;20229;-85
2022/06/28 04:45:34;;;;;;;7.13;3.03;;;;;;;;;;5032362;28;20741;-85
2022/06/28 04:48:02;;;;;;;5.10;3.10;;;;;;;;;;5032847;28;20223;-85
2022/06/28 04:50:29;;;;;;;3.20;3.00;;;;;;;;;;5032770;28;20234;-85
2022/06/28 04:52:57;;;;;;;5.90;2.97;;;;;;;;;;5032968;28;20218;-85
2022/06/28 04:55:24;;;;;;;3.47;3.17;;;;;;;;;;5032597;28;20230;-85
2022/06/28 04:57:51;;;;;;;5.73;3.30;;;;;;;;;;5033336;28;20202;-84
2022/06/28 05:00:18;;;;;;;4.07;3.20;;;;;;;;;;5032273;28;20257;-85
2022/06/28 05:02:45;;;;;;;3.57;3.27;;;;;;;;;;5032350;28;20234;-86
2022/06/28 05:05:14;;;;;;;3.80;3.40;;;;;;;;;;5032025;28;20264;-85
2022/06/28 05:07:41;;;;;;;5.23;3.50;;;;;;;;;;5032650;28;20226;-85
2022/06/28 05:10:08;;;;;;;3.97;3.60;;;;;;;;;;5032818;28;20234;-83
2022/06/28 05:12:35;;;;;;;3.77;3.47;;;;;;;;;;5038523;28;20206;-82
2022/06/28 05:15:02;;;;;;;4.40;3.40;;;;;;;;;;5038145;28;20242;-82
2022/06/28 05:17:29;;;;;;;3.60;2.83;;;;;;;;;;5039468;28;20207;-82
2022/06/28 05:19:57;;;;;;;3.77;3.47;;;;;;;;;;5038489;28;20237;-82
2022/06/28 05:22:25;;;;;;;3.27;2.90;;;;;;;;;;5038325;28;20217;-82
2022/06/28 05:24:52;;;;;;;4.80;3.23;;;;;;;;;;5037149;28;20266;-82
2022/06/28 05:27:19;;;;;;;4.27;3.87;;;;;;;;;;5037481;28;20221;-82
2022/06/28 05:29:46;;;;;;;4.53;4.10;;;;;;;;;;5037358;28;20635;-83
2022/06/28 05:32:14;;;;;;;5.93;4.00;;;;;;;;;;5037987;28;20214;-83
2022/06/28 05:34:41;;;;;;;6.47;4.23;;;;;;;;;;5036608;28;20238;-83
2022/06/28 05:37:09;;;;;;;5.03;4.47;;;;;;;;;;5037161;28;20233;-82
2022/06/28 05:39:37;;;;;;;5.60;4.63;;;;;;;;;;5034295;28;20637;-83
2022/06/28 05:42:04;;;;;;;6.00;5.40;;;;;;;;;;5035803;28;20234;-83
2022/06/28 05:44:31;;;;;;;6.10;5.50;;;;;;;;;;5035008;28;21069;-83
2022/06/28 05:46:58;;;;;;;5.27;4.77;;;;;;;;;;5035911;28;20743;-83
2022/06/28 05:49:25;;;;;;;6.10;5.50;;;;;;;;;;5035059;28;20243;-83
2022/06/28 05:51:52;;;;;;;6.40;5.80;;;;;;;;;;5035328;28;20210;-83
2022/06/28 05:54:19;;;;;;;10.53;6.67;;;;;;;;;;5034154;28;20234;-83
2022/06/28 05:56:49;;;;;;;8.40;6.73;;;;;;;;;;5034624;28;20584;-83
2022/06/28 05:59:16;;;;;;;9.20;7.13;;;;;;;;;;5033844;28;20235;-83
2022/06/28 06:01:43;;;;;;;7.83;6.03;;;;;;;;;;5033811;28;20207;-83
2022/06/28 06:04:10;;;;;;;7.53;5.87;;;;;;;;;;5033134;28;20237;-83
2022/06/28 06:06:37;;;;;;;8.17;6.10;;;;;;;;;;5035023;28;20606;-82
2022/06/28 06:09:04;;;;;;;6.87;6.20;;;;;;;;;;5034049;28;20239;-83
2022/06/28 06:11:31;;;;;;;6.70;6.00;;;;;;;;;;5034870;28;20348;-83
2022/06/28 06:14:00;;;;;;;7.10;6.40;;;;;;;;;;5034351;28;20241;-83
2022/06/28 06:16:27;;;;;;;5.93;5.43;;;;;;;;;;5034573;28;20207;-83
2022/06/28 06:18:54;;;;;;;6.90;5.37;;;;;;;;;;5034052;28;20234;-83
2022/06/28 06:21:21;;;;;;;6.13;5.30;;;;;;;;;;5034846;28;20206;-83
2022/06/28 06:23:49;;;;;;;6.67;5.73;;;;;;;;;;5032974;28;20231;-83
2022/06/28 06:26:16;;;;;;;7.80;5.20;;;;;;;;;;5033469;28;20210;-83
2022/06/28 06:28:43;;;;;;;7.75;5.60;;;;;;;;;;5033687;28;20317;-82
2022/06/28 06:31:12;;;;;;;5.68;4.90;;;;;;;;;;5033842;28;20268;-84
2022/06/28 06:33:39;;;;;;;5.25;4.65;;;;;;;;;;5032612;28;20232;-83
2022/06/28 06:36:06;;;;;;;4.53;4.13;;;;;;;;;;5033781;28;20211;-83
2022/06/28 06:38:33;;;;;;;6.15;4.30;;;;;;;;;;5032212;28;20210;-83
2022/06/28 06:41:00;;;;;;;6.40;4.30;;;;;;;;;;5032968;28;20206;-83
2022/06/28 06:43:28;;;;;;;5.55;4.85;;;;;;;;;;5031733;28;20230;-83
2022/06/28 06:45:55;;;;;;;6.78;4.20;;;;;;;;;;5032865;28;20621;-83
2022/06/28 06:48:24;;;;;;;6.47;3.70;;;;;;;;;;5031983;28;20226;-83
2022/06/28 06:50:51;;;;;;;3.33;2.92;;;;;;;;;;5035833;28;20218;-82
2022/06/28 06:53:20;;;;;;;3.38;3.08;;;;;;;;;;5036037;28;20718;-83
2022/06/28 06:55:47;;;;;;;3.50;3.20;;;;;;;;;;5035820;28;20245;-83
2022/06/28 06:58:15;;;;;;;4.25;3.47;;;;;;;;;;5039687;28;20745;-83
2022/06/28 07:00:42;;;;;;;3.58;3.28;;;;;;;;;;5035803;28;20241;-83
2022/06/28 07:03:09;;;;;;;3.53;3.20;;;;;;;;;;5035381;28;20235;-84
2022/06/28 07:05:38;;;;;;;3.08;2.65;;;;;;;;;;5035687;28;20238;-83
2022/06/28 07:08:05;;;;;;;2.60;2.40;;;;;;;;;;5046088;28;20233;-83
2022/06/28 07:10:32;;;;;;;2.67;1.60;;;;;;;;;;5035875;28;20230;-83
2022/06/28 07:13:01;;;;;;;1.88;1.30;;;;;;;;;;5036775;28;20599;-83
2022/06/28 07:15:28;;;;;;;2.10;1.40;;;;;;;;;;5035817;28;20609;-83
2022/06/28 07:17:55;;;;;;;2.03;1.75;;;;;;;;;;5035939;28;20207;-83
2022/06/28 07:20:22;;;;;;;3.13;2.00;;;;;;;;;;5034749;28;20300;-83
2022/06/28 07:22:50;;;;;;;1.70;1.60;;;;;;;;;;5035418;28;20230;-83
2022/06/28 07:25:17;;;;;;;2.13;1.90;;;;;;;;;;5034948;28;20578;-82
2022/06/28 07:27:44;;;;;;;4.10;1.50;;;;;;;;;;5034852;28;20694;-83
2022/06/28 07:30:12;;;;;;;2.50;1.60;;;;;;;;;;5034775;28;20243;-83
2022/06/28 07:32:39;;;;;;;2.95;1.70;;;;;;;;;;5035054;28;20211;-82
2022/06/28 07:35:07;;;;;;;1.60;1.40;;;;;;;;;;5034304;28;20234;-84
2022/06/28 07:37:36;;;;;;;1.88;1.77;;;;;;;;;;5034994;28;20211;-81
2022/06/28 07:40:05;;;;;;;2.78;1.88;;;;;;;;;;5036720;28;20261;-83
2022/06/28 07:42:32;;;;;;;2.58;1.60;;;;;;;;;;5048848;28;20774;-82
2022/06/28 07:44:59;;;;;;;3.53;1.40;;;;;;;;;;5048626;28;20294;-83
2022/06/28 07:47:26;;;;;;;4.38;1.25;;;;;;;;;;5049003;28;20238;-84
2022/06/28 07:52:38;;;;;;;1.45;1.30;;;;;;;;;;5047433;28;20284;-83
2022/06/28 07:55:07;;;;;;;1.02;1.02;;;;;;;;;;5048082;28;20234;-84
2022/06/28 07:57:34;;;;;;;1.55;0.90;;;;;;;;;;5048860;28;20214;-84
2022/06/28 08:00:02;;;;;;;0.88;0.88;;;;;;;;;;5048518;28;20245;-84
2022/06/28 08:02:29;;;;;;;0.98;0.60;;;;;;;;;;5043776;28;20261;-83
2022/06/28 08:04:56;;;;;;;0.80;0.80;;;;;;;;;;5035277;28;20234;-84
2022/06/28 08:07:23;;;;;;;1.58;1.13;;;;;;;;;;5036904;28;20689;-82
2022/06/28 08:09:51;;;;;;;1.25;1.00;;;;;;;;;;5033642;28;20234;-82
2022/06/28 08:12:19;;;;;;;1.23;1.13;;;;;;;;;;5034571;28;20213;-83
2022/06/28 08:14:46;;;;;;;3.63;1.13;;;;;;;;;;5033663;28;20238;-82
2022/06/28 08:17:13;;;;;;;1.17;1.10;;;;;;;;;;5034085;28;20211;-83
2022/06/28 08:19:41;;;;;;;1.15;1.05;;;;;;;;;;5033318;28;20717;-82
2022/06/28 08:22:08;;;;;;;2.42;1.05;;;;;;;;;;5033712;28;20213;-82
2022/06/28 08:24:35;;;;;;;1.35;0.80;;;;;;;;;;5032594;28;20702;-82
2022/06/28 08:27:02;;;;;;;0.75;0.75;;;;;;;;;;5033367;28;20253;-82
2022/06/28 08:29:31;;;;;;;0.88;0.85;;;;;;;;;;5033025;28;20242;-82
2022/06/28 08:31:59;;;;;;;2.05;0.70;;;;;;;;;;5033771;28;20203;-82
2022/06/28 08:34:26;;;;;;;0.80;0.80;;;;;;;;;;5032442;28;20249;-83
2022/06/28 08:36:53;;;;;;;1.50;0.90;;;;;;;;;;5033234;28;20211;-83
2022/06/28 08:39:20;;;;;;;1.27;0.90;;;;;;;;;;5033164;28;20714;-85
2022/06/28 08:41:48;;;;;;;3.00;1.23;;;;;;;;;;5033290;28;20209;-83
2022/06/28 08:44:17;;;;;;;1.55;1.25;;;;;;;;;;5032969;28;20664;-81
2022/06/28 08:46:47;;;;;;;0.70;0.70;;;;;;;;;;5033636;28;20256;-81
2022/06/28 08:49:15;;;;;;;1.60;0.70;;;;;;;;;;5033838;28;20262;-81
2022/06/28 08:51:42;;;;;;;1.40;0.95;;;;;;;;;;5033092;28;20203;-81
2022/06/28 08:54:10;;;;;;;0.68;0.63;;;;;;;;;;5034373;28;20242;-83
2022/06/28 08:56:38;;;;;;;0.90;0.68;;;;;;;;;;5036027;28;20553;-83
2022/06/28 08:59:07;;;;;;;0.73;0.70;;;;;;;;;;5034140;28;20250;-83
2022/06/28 09:01:35;;;;;;;0.70;0.70;;;;;;;;;;5035386;28;20612;-82
2022/06/28 09:04:04;;;;;;;1.95;0.88;;;;;;;;;;5040387;28;20238;-82
2022/06/28 09:06:31;;;;;;;0.60;0.60;;;;;;;;;;5045376;28;20206;-83
2022/06/28 09:08:58;;;;;;;0.70;0.70;;;;;;;;;;5044993;28;20524;-82
2022/06/28 09:11:25;;;;;;;1.95;0.93;;;;;;;;;;5046301;28;20202;-82
2022/06/28 09:13:52;;;;;;;2.10;0.90;;;;;;;;;;5045113;28;20787;-81
2022/06/28 09:16:20;;;;;;;0.98;0.80;;;;;;;;;;5046761;28;20251;-82
2022/06/28 09:18:48;;;;;;;1.05;1.00;;;;;;;;;;5045477;28;20237;-85
2022/06/28 09:21:17;;;;;;;2.22;1.08;;;;;;;;;;5046358;28;20206;-81
2022/06/28 09:23:45;;;;;;;0.93;0.75;;;;;;;;;;5044557;28;20245;-81
2022/06/28 09:26:13;;;;;;;2.60;0.80;;;;;;;;;;5046411;28;20211;-83
2022/06/28 09:28:41;;;;;;;0.73;0.50;;;;;;;;;;5047092;28;20211;-82
2022/06/28 09:31:15;;;;;;;1.23;0.70;;;;;;;;;;5045843;28;20203;-83
2022/06/28 09:33:42;;;;;;;0.85;0.55;;;;;;;;;;5046153;28;20237;-81
2022/06/28 09:36:13;;;;;;;1.00;0.60;;;;;;;;;;5047275;28;20217;-82
2022/06/28 09:38:42;;;;;;;0.60;0.60;;;;;;;;;;5046792;28;20207;-85
2022/06/28 09:41:25;;;;;;;2.15;0.90;;;;;;;;;;5047063;28;20206;-82
2022/06/28 09:43:57;;;;;;;0.60;0.60;;;;;;;;;;5044583;28;20620;-81
2022/06/28 09:46:26;;;;;;;0.77;0.70;;;;;;;;;;5047735;28;20214;-85
2022/06/28 09:48:54;;;;;;;2.05;0.80;;;;;;;;;;5046135;28;20292;-82
2022/06/28 09:51:22;;;;;;;0.65;0.50;;;;;;;;;;5046959;28;20199;-82
2022/06/28 09:53:53;;;;;;;0.75;0.50;;;;;;;;;;5046014;28;20231;-81
2022/06/28 09:56:22;;;;;;;0.82;0.80;;;;;;;;;;5047044;28;20199;-84
2022/06/28 09:58:50;;;;;;;2.50;0.70;;;;;;;;;;5044498;28;20222;-81
2022/06/28 10:01:17;;;;;;;2.80;0.80;;;;;;;;;;5049472;28;20198;-83
2022/06/28 10:03:44;;;;;;;1.70;0.65;;;;;;;;;;5050440;28;20238;-84
2022/06/28 10:06:12;;;;;;;2.45;0.95;;;;;;;;;;5042868;28;20222;-81
2022/06/28 10:08:40;;;;;;;1.63;0.70;;;;;;;;;;5044575;28;20679;-82
2022/06/28 10:11:10;;;;;;;2.10;0.90;;;;;;;;;;5044884;28;20211;-83
2022/06/28 10:16:26;;;;;;;1.02;0.65;;;;;;;;;;5041264;28;20225;-82
2022/06/28 10:18:55;;;;;;;3.85;0.85;;;;;;;;;;5045767;28;20265;-82
2022/06/28 10:21:37;;;;;;;0.93;0.80;;;;;;;;;;5046749;28;20205;-82
2022/06/28 10:24:04;;;;;;;2.72;0.70;;;;;;;;;;5045606;28;20238;-85
2022/06/28 10:26:32;;;;;;;1.83;0.90;;;;;;;;;;5050785;28;20218;-83
2022/06/28 10:29:01;;;;;;;1.02;0.85;;;;;;;;;;5049532;28;20237;-81
2022/06/28 10:31:39;;;;;;;1.55;0.73;;;;;;;;;;5042909;28;20207;-79
2022/06/28 10:34:08;;;;;;;1.23;0.57;;;;;;;;;;5045720;28;20257;-82
2022/06/28 10:36:43;;;;;;;2.50;1.00;;;;;;;;;;5045637;28;20213;-83
2022/06/28 10:39:17;;;;;;;1.95;0.85;;;;;;;;;;5045649;28;20228;-83
2022/06/28 10:41:47;;;;;;;2.42;0.65;;;;;;;;;;5044821;28;20217;-82
2022/06/28 10:44:15;;;;;;;0.88;0.77;;;;;;;;;;5045569;28;20245;-81
2022/06/28 10:46:43;;;;;;;1.15;0.60;;;;;;;;;;5048220;28;20214;-82
2022/06/28 10:49:11;;;;;;;0.47;0.47;;;;;;;;;;5049677;28;20234;-82
2022/06/28 10:51:42;;;;;;;1.13;0.65;;;;;;;;;;5049431;28;20286;-83
2022/06/28 10:54:10;;;;;;;1.10;1.00;;;;;;;;;;5047733;28;20234;-81
2022/06/28 10:56:44;;;;;;;0.50;0.50;;;;;;;;;;5047217;28;20213;-81
2022/06/28 10:59:13;;;;;;;0.70;0.65;;;;;;;;;;5039356;28;20237;-83
2022/06/28 11:01:56;;;;;;;0.93;0.70;;;;;;;;;;5040417;28;20211;-82
2022/06/28 11:04:25;;;;;;;2.00;0.60;;;;;;;;;;5047967;28;20245;-82
2022/06/28 11:06:53;;;;;;;1.75;0.60;;;;;;;;;;5048996;28;20217;-83
2022/06/28 11:09:25;;;;;;;1.75;0.60;;;;;;;;;;5046943;28;20265;-81
2022/06/28 11:12:05;;;;;;;2.67;0.60;;;;;;;;;;5048845;28;20214;-83
2022/06/28 11:14:36;;;;;;;2.22;0.80;;;;;;;;;;5046437;28;20242;-80
2022/06/28 11:17:03;;;;;;;1.35;0.60;;;;;;;;;;5046578;28;20241;-81
2022/06/28 11:19:30;;;;;;;0.63;0.63;;;;;;;;;;5047259;28;20260;-81
2022/06/28 11:21:57;;;;;;;1.48;0.55;;;;;;;;;;5047448;28;20206;-81
2022/06/28 11:24:25;;;;;;;2.47;0.57;;;;;;;;;;5046270;28;20249;-84
2022/06/28 11:29:38;;;;;;;2.33;0.70;;;;;;;;;;5046110;28;20245;-84
2022/06/28 11:32:16;;;;;;;1.90;0.90;;;;;;;;;;5045211;28;20217;-82
2022/06/28 11:34:43;;;;;;;1.83;0.70;;;;;;;;;;5043850;28;20246;-82
2022/06/28 11:37:10;;;;;;;2.10;0.60;;;;;;;;;;5044249;28;20275;-82
2022/06/28 11:39:37;;;;;;;0.77;0.57;;;;;;;;;;5043887;28;20230;-80
2022/06/28 11:42:04;;;;;;;1.02;0.60;;;;;;;;;;5042215;28;20213;-82
2022/06/28 11:44:31;;;;;;;0.60;0.60;;;;;;;;;;5047441;28;20340;-81
2022/06/28 11:47:00;;;;;;;0.63;0.50;;;;;;;;;;5056648;28;20202;-82
2022/06/28 11:49:28;;;;;;;0.80;0.70;;;;;;;;;;5050904;28;20594;-84
2022/06/28 11:51:55;;;;;;;0.93;0.80;;;;;;;;;;5052090;28;20228;-82
2022/06/28 11:54:22;;;;;;;1.58;0.68;;;;;;;;;;5052555;28;20241;-82
2022/06/28 11:56:49;;;;;;;1.63;0.90;;;;;;;;;;5051659;28;20194;-83
2022/06/28 11:59:16;;;;;;;2.80;0.70;;;;;;;;;;5046732;28;20238;-83
2022/06/28 12:01:44;;;;;;;1.83;0.80;;;;;;;;;;5048350;28;20272;-83
2022/06/28 12:04:12;;;;;;;0.60;0.60;;;;;;;;;;5048338;28;20301;-82
2022/06/28 12:06:42;;;;;;;2.40;0.75;;;;;;;;;;5052499;28;20221;-81
2022/06/28 12:09:09;;;;;;;2.10;0.40;;;;;;;;;;5050815;28;20230;-85
2022/06/28 12:11:39;;;;;;;0.68;0.52;;;;;;;;;;5050495;28;20222;-82
2022/06/28 12:14:07;;;;;;;0.85;0.50;;;;;;;;;;5050214;28;20230;-84
2022/06/28 12:16:35;;;;;;;1.15;0.90;;;;;;;;;;5048209;28;20261;-83
2022/06/28 12:19:04;;;;;;;0.57;0.57;;;;;;;;;;5045746;28;20230;-82
2022/06/28 12:21:32;;;;;;;1.45;0.60;;;;;;;;;;5044302;28;20206;-82
2022/06/28 12:24:00;;;;;;;0.95;0.88;;;;;;;;;;5045455;28;20297;-82
2022/06/28 12:26:40;;;;;;;0.65;0.55;;;;;;;;;;5046555;28;20202;-81
2022/06/28 12:29:07;;;;;;;0.85;0.55;;;;;;;;;;5044769;28;20234;-81
2022/06/28 12:31:34;;;;;;;1.85;0.60;;;;;;;;;;5043258;28;20695;-85
2022/06/28 12:34:06;;;;;;;0.60;0.60;;;;;;;;;;5045029;28;20264;-82
2022/06/28 12:36:34;;;;;;;0.35;0.35;;;;;;;;;;5044728;28;20256;-81
2022/06/28 12:39:01;;;;;;;1.83;0.70;;;;;;;;;;5044873;28;20231;-82
2022/06/28 12:41:28;;;;;;;0.88;0.68;;;;;;;;;;5043454;28;20199;-80
2022/06/28 12:43:55;;;;;;;0.70;0.50;;;;;;;;;;5043069;28;20238;-81
2022/06/28 12:46:22;;;;;;;0.60;0.55;;;;;;;;;;5043353;28;20206;-81
2022/06/28 12:48:50;;;;;;;0.63;0.60;;;;;;;;;;5043969;28;20369;-81
2022/06/28 12:51:17;;;;;;;1.02;0.55;;;;;;;;;;5045490;28;20252;-86
2022/06/28 12:53:45;;;;;;;2.25;0.60;;;;;;;;;;5044440;28;20246;-80
2022/06/28 12:56:13;;;;;;;1.25;1.15;;;;;;;;;;5042200;28;20213;-81
2022/06/28 12:58:42;;;;;;;0.75;0.60;;;;;;;;;;5043741;28;20306;-82
2022/06/28 13:01:09;;;;;;;1.48;0.55;;;;;;;;;;5044007;28;20206;-82
2022/06/28 13:03:36;;;;;;;0.98;0.47;;;;;;;;;;5043355;28;20234;-81
2022/06/28 13:06:03;;;;;;;0.85;0.70;;;;;;;;;;5044152;28;20461;-81
2022/06/28 13:08:30;;;;;;;0.98;0.85;;;;;;;;;;5042721;28;20210;-82
2022/06/28 13:10:58;;;;;;;2.13;0.77;;;;;;;;;;5045169;28;20218;-81
2022/06/28 13:13:25;;;;;;;1.17;0.90;;;;;;;;;;5044312;28;20222;-84
2022/06/28 13:15:52;;;;;;;1.02;0.70;;;;;;;;;;5042106;28;20207;-82
2022/06/28 13:18:19;;;;;;;0.60;0.60;;;;;;;;;;5042883;28;20213;-81
2022/06/28 13:20:46;;;;;;;1.15;0.82;;;;;;;;;;5043069;28;20222;-82
2022/06/28 13:23:14;;;;;;;1.48;0.75;;;;;;;;;;5043133;28;20230;-86
2022/06/28 13:25:41;;;;;;;0.77;0.70;;;;;;;;;;5043943;28;20234;-81
2022/06/28 13:28:09;;;;;;;1.85;0.77;;;;;;;;;;5043252;28;20206;-84
2022/06/28 13:30:37;;;;;;;1.92;0.60;;;;;;;;;;5040107;28;20327;-80
2022/06/28 13:33:04;;;;;;;1.25;0.90;;;;;;;;;;5041382;28;20226;-83
2022/06/28 13:35:31;;;;;;;0.73;0.73;;;;;;;;;;5042076;28;20253;-81
2022/06/28 13:37:58;;;;;;;0.77;0.70;;;;;;;;;;5041971;28;20225;-83
2022/06/28 13:40:25;;;;;;;3.17;0.80;;;;;;;;;;5038099;28;20717;-79
2022/06/28 13:42:53;;;;;;;2.42;0.73;;;;;;;;;;5032355;28;20227;-80
2022/06/28 13:45:22;;;;;;;1.27;0.73;;;;;;;;;;5037602;28;20250;-81
2022/06/28 13:47:49;;;;;;;0.85;0.70;;;;;;;;;;5042987;28;20210;-80
2022/06/28 13:50:16;;;;;;;0.73;0.50;;;;;;;;;;5041706;28;20249;-81
2022/06/28 13:52:43;;;;;;;2.15;0.47;;;;;;;;;;5042199;28;20202;-81
2022/06/28 13:55:11;;;;;;;1.45;0.70;;;;;;;;;;5033862;28;20238;-83
2022/06/28 13:57:38;;;;;;;1.55;0.70;;;;;;;;;;5038333;28;20206;-80
2022/06/28 14:00:05;;;;;;;1.55;0.80;;;;;;;;;;5043190;28;20292;-84
2022/06/28 14:02:34;;;;;;;1.02;0.70;;;;;;;;;;5048947;28;20203;-81
2022/06/28 14:05:01;;;;;;;0.70;0.70;;;;;;;;;;5047923;28;20234;-83
2022/06/28 14:07:28;;;;;;;0.60;0.60;;;;;;;;;;5042989;28;20256;-80
2022/06/28 14:09:55;;;;;;;1.00;0.75;;;;;;;;;;5040916;28;20601;-83
2022/06/28 14:12:22;;;;;;;0.70;0.70;;;;;;;;;;5042723;28;20213;-80
2022/06/28 14:14:49;;;;;;;1.65;0.70;;;;;;;;;;5044648;28;20249;-80
2022/06/28 14:17:16;;;;;;;1.60;0.80;;;;;;;;;;5044333;28;20206;-81
2022/06/28 14:19:44;;;;;;;1.02;0.73;;;;;;;;;;5041278;28;20244;-78
2022/06/28 14:22:11;;;;;;;0.65;0.65;;;;;;;;;;5039721;28;20206;-82
2022/06/28 14:24:38;;;;;;;1.33;0.73;;;;;;;;;;5039615;28;20246;-78
2022/06/28 14:27:06;;;;;;;1.10;0.60;;;;;;;;;;5039785;28;20242;-83
2022/06/28 14:29:33;;;;;;;1.92;0.93;;;;;;;;;;5041036;28;20594;-80
2022/06/28 14:32:00;;;;;;;1.50;0.63;;;;;;;;;;5040077;28;20226;-80
2022/06/28 14:34:28;;;;;;;1.48;0.75;;;;;;;;;;5039928;28;20238;-79
2022/06/28 14:36:57;;;;;;;1.20;0.88;;;;;;;;;;5046707;28;20214;-81
2022/06/28 14:39:24;;;;;;;2.95;0.70;;;;;;;;;;5047391;28;20238;-83
2022/06/28 14:41:51;;;;;;;1.83;0.98;;;;;;;;;;5042364;28;20221;-79
2022/06/28 14:44:18;;;;;;;2.78;0.68;;;;;;;;;;5037416;28;20699;-84
2022/06/28 14:46:45;;;;;;;1.17;0.85;;;;;;;;;;5049600;28;20198;-87
2022/06/28 14:49:12;;;;;;;1.85;0.82;;;;;;;;;;5044574;28;20250;-82
2022/06/28 14:51:41;;;;;;;1.23;0.77;;;;;;;;;;5038658;28;20226;-79
2022/06/28 14:54:09;;;;;;;0.95;0.90;;;;;;;;;;5038545;28;20234;-80
2022/06/28 14:56:37;;;;;;;0.75;0.52;;;;;;;;;;5039001;28;20671;-81
2022/06/28 14:59:04;;;;;;;0.93;0.65;;;;;;;;;;5039540;28;20313;-79
2022/06/28 15:01:31;;;;;;;1.85;0.70;;;;;;;;;;5038209;28;20207;-81